METAR (acronimo di METeorological Air Report) è un messaggio meteo emesso nella maggior parte dei casi in ambito aeroportuale

LIPF - Ferrara, It
Distanza dalla Stazione: 8 km
Ultimo Aggiornamento: Giovedì 16 Luglio 2020 13:55 CEST
Qualche Nuvola
Qualche Nuvola
 Wind from varies
Vento: variabile 0 km/h
Temperatura: 30°C
Heat Index: 30°C
Punto di Rugiada: 16°C
Umidità: 43%
Barometro: 1014 hPa
Nuvole: Qualche Nuvola
Visibilità: 10 km
Nuvole nel Dettaglio: Qualche Nuvola 1219 m
2020/07/16 11:55 LIPF 161155Z /////KT 9999 FEW040 30/16 Q1014
LIPE - Bologna Borgo Panigale, It
Distanza dalla Stazione: 46 km
Ultimo Aggiornamento: Giovedì 16 Luglio 2020 14:20 CEST
Qualche Nuvola
Qualche Nuvola
 Wind from Nord-Ovest
Vento: Nord-Ovest 7 km/h
Temperatura: 28°C
Heat Index: 27°C
Punto di Rugiada: 13°C
Umidità: 40%
Barometro: 1013 hPa
Nuvole: Qualche Nuvola
Visibilità: 10 km
Nuvole nel Dettaglio: Qualche Nuvola 1372 m
2020/07/16 12:20 LIPE 161220Z 31004KT 220V010 9999 FEW045 28/13 Q1013
LIMF - Torino Caselle, It
Distanza dalla Stazione: 320 km
Ultimo Aggiornamento: Giovedì 16 Luglio 2020 14:20 CEST
Qualche Nuvola
Qualche Nuvola
 Wind from varies
Vento: variabile 7 km/h
Temperatura: 27°C
Heat Index: 27°C
Punto di Rugiada: 15°C
Umidità: 48%
Barometro: 1014 hPa
Nuvole: Qualche Nuvola
Visibilità: 10 km
Nuvole nel Dettaglio: Qualche Nuvola 1372 m
2020/07/16 12:20 LIMF 161220Z VRB04KT 9999 FEW045 27/15 Q1014
 
LIML - Milano Malpensa, It
Distanza dalla Stazione: 249 km
Ultimo Aggiornamento: Giovedì 16 Luglio 2020 14:20 CEST
Qualche Nuvola
Qualche Nuvola
 Wind from Sud-Ovest
Vento: Sud-Ovest 13 km/h
Temperatura: 27°C
Heat Index: 28°C
Punto di Rugiada: 17°C
Umidità: 54%
Barometro: 1014 hPa
Nuvole: Qualche Nuvola
Visibilità: 10 km
Nuvole nel Dettaglio: Qualche Nuvola 1219 m
2020/07/16 12:20 LIML 161220Z 22007KT 190V270 9999 FEW040 27/17 Q1014 NOSIG
LIME - Bergamo Orio al Serio, It
Distanza dalla Stazione: 181 km
Ultimo Aggiornamento: Giovedì 16 Luglio 2020 14:20 CEST
Parzialmente Nuvoloso
Parzialmente Nuvoloso
 Wind from Ovest
Vento: Ovest 11 km/h
Temperatura: 26°C
Punto di Rugiada: 15°C
Umidità: 51%
Barometro: 1014 hPa
Nuvole: Parzialmente Nuvoloso
Visibilità: 10 km
Nuvole nel Dettaglio: Parzialmente Nuvoloso 1219 m
2020/07/16 12:20 LIME 161220Z 27006KT 230V310 9999 SCT040 26/15 Q1014 NOSIG
LIPZ - Venezia Tessera, It
Distanza dalla Stazione: 93 km
Ultimo Aggiornamento: Giovedì 16 Luglio 2020 14:20 CEST
Parzialmente Nuvoloso
Parzialmente Nuvoloso
 Wind from Sud-Est
Vento: Sud-Est 7 km/h
Temperatura: 25°C
Punto di Rugiada: 17°C
Umidità: 61%
Barometro: 1013 hPa
Nuvole: Parzialmente Nuvoloso
Visibilità: 10 km
Nuvole nel Dettaglio: Parzialmente Nuvoloso 1524 m
2020/07/16 12:20 LIPZ 161220Z 14004KT 110V190 9999 SCT050 25/17 Q1013 NOSIG
 
LIVT - Trieste, It
Distanza dalla Stazione: 179 km
Ultimo Aggiornamento: Giovedì 16 Luglio 2020 13:55 CEST
Sereno
Sereno
 Wind from varies
Vento: variabile 0 km/h
Temperatura: 25°C
Punto di Rugiada: 19°C
Umidità: 69%
Barometro: 1013 hPa
Condizioni: Sereno
Visibilità: superiore a 10 km
2020/07/16 11:55 LIVT 161155Z /////KT CAVOK 25/19 Q1013 RMK SKC QUK 1 QUL 0 VIS MAR 20 KM VIS MIN 9999
LIMJ - Genova, It
Distanza dalla Stazione: 229 km
Ultimo Aggiornamento: Giovedì 16 Luglio 2020 14:20 CEST
Parzialmente Nuvoloso
Parzialmente Nuvoloso
 Wind from Sud-Est
Vento: Sud-Est 13 km/h
Temperatura: 24°C
Punto di Rugiada: 20°C
Umidità: 78%
Barometro: 1014 hPa
Nuvole: Parzialmente Nuvoloso
Visibilità: 10 km
Nuvole nel Dettaglio: Parzialmente Nuvoloso 762 m
2020/07/16 12:20 LIMJ 161220Z 13007KT 9999 SCT025 24/20 Q1014
LIRQ - Firenze Amerigo Vespucci, It
Distanza dalla Stazione: 119 km
Ultimo Aggiornamento: Giovedì 16 Luglio 2020 14:20 CEST
Qualche Nuvola
Qualche Nuvola
 Wind from Sud
Vento: Sud 7 km/h
Temperatura: 29°C
Heat Index: 28°C
Punto di Rugiada: 14°C
Umidità: 40%
Barometro: 1013 hPa
Nuvole: Qualche Nuvola
Visibilità: 10 km
Nuvole nel Dettaglio: Qualche Nuvola 1829 m
2020/07/16 12:20 LIRQ 161220Z 19004KT 080V250 9999 FEW060 29/14 Q1013
 
LIPY - Ancona, It
Distanza dalla Stazione: 189 km
Ultimo Aggiornamento: Giovedì 16 Luglio 2020 14:20 CEST
Sereno
Sereno
 Wind from Nord-Est
Vento: Nord-Est 17 km/h
Temperatura: 26°C
Punto di Rugiada: 15°C
Umidità: 51%
Barometro: 1013 hPa
Nuvole: Sereno
Visibilità: 10 km
2020/07/16 12:20 LIPY 161220Z AUTO 05009KT 9999 NCD 26/15 Q1013
LIBP - Pescara, It
Distanza dalla Stazione: 333 km
Ultimo Aggiornamento: Giovedì 16 Luglio 2020 14:20 CEST
Qualche Nuvola
Qualche Nuvola
 Wind from Est-Nord-Est
Vento: Est-Nord-Est 20 km/h
Temperatura: 26°C
Punto di Rugiada: 19°C
Umidità: 65%
Barometro: 1013 hPa
Nuvole: Qualche Nuvola
Visibilità: 10 km
Nuvole nel Dettaglio: Qualche Nuvola 3353 m
2020/07/16 12:20 LIBP 161220Z AUTO 07011KT 9999 FEW110/// 26/19 Q1013
LIRF - Roma-Fiumicino, It
Distanza dalla Stazione: 334 km
Ultimo Aggiornamento: Giovedì 16 Luglio 2020 14:20 CEST
Sereno
Sereno
 Wind from Ovest-Sud-Ovest
Vento: Ovest-Sud-Ovest 22 km/h
Temperatura: 28°C
Heat Index: 29°C
Punto di Rugiada: 19°C
Umidità: 58%
Barometro: 1013 hPa
Condizioni: Sereno
Visibilità: superiore a 10 km
2020/07/16 12:20 LIRF 161220Z 24012KT CAVOK 28/19 Q1013 NOSIG
 
LIRN - Napoli Capodichino, It
Distanza dalla Stazione: 494 km
Ultimo Aggiornamento: Giovedì 16 Luglio 2020 14:20 CEST
Qualche Nuvola
Qualche Nuvola
 Wind from Ovest
Vento: Ovest 17 km/h
Temperatura: 29°C
Heat Index: 28°C
Punto di Rugiada: 14°C
Umidità: 40%
Barometro: 1014 hPa
Nuvole: Qualche Nuvola
Visibilità: 10 km
Nuvole nel Dettaglio: Qualche Nuvola 1219 m
2020/07/16 12:20 LIRN 161220Z 27009KT 230V320 9999 FEW040 29/14 Q1014 NOSIG
LIBD - Bari Palese, It
Distanza dalla Stazione: 594 km
Ultimo Aggiornamento: Giovedì 16 Luglio 2020 14:20 CEST
Sereno
Sereno
 Wind from Nord-Nord-Est
Vento: Nord-Nord-Est 13 km/h
Temperatura: 26°C
Punto di Rugiada: 19°C
Umidità: 65%
Barometro: 1013 hPa
Condizioni: Sereno
Visibilità: superiore a 10 km
2020/07/16 12:20 LIBD 161220Z 03007KT 340V070 CAVOK 26/19 Q1013
LIBG - Taranto Grottaglie, It
Distanza dalla Stazione: 670 km
Ultimo Aggiornamento: Giovedì 16 Luglio 2020 14:05 CEST
Pioggia, Parzialmente Nuvoloso
Pioggia, Parzialmente Nuvoloso
 Wind from Sud-Ovest
Vento: Sud-Ovest 9 km/h
Temperatura: 25°C
Punto di Rugiada: 19°C
Umidità: 69%
Barometro: 1013 hPa
Condizioni: Pioggia
Nuvole: Parzialmente Nuvoloso
Visibilità: 8 km
Nuvole nel Dettaglio: Parzialmente Nuvoloso 914 m
2020/07/16 12:05 LIBG 161205Z 23005KT 8000 RA SCT030 25/19 Q1013
 
LICR - Reggio Calabria, It
Distanza dalla Stazione: 819 km
Ultimo Aggiornamento: Giovedì 16 Luglio 2020 13:50 CEST
Qualche Nuvola
Qualche Nuvola
 Wind from Nord
Vento: Nord 24 km/h
Temperatura: 30°C
Heat Index: 31°C
Punto di Rugiada: 18°C
Umidità: 49%
Barometro: 1014 hPa
Nuvole: Qualche Nuvola
Visibilità: 10 km
Nuvole nel Dettaglio: Qualche Nuvola 914 m
2020/07/16 11:50 LICR 161150Z 35013KT 9999 FEW030 30/18 Q1014
LICJ - Palermo Punta Raisi, It
Distanza dalla Stazione: 762 km
Ultimo Aggiornamento: Giovedì 16 Luglio 2020 14:20 CEST
Qualche Nuvola
Qualche Nuvola
 Wind from Nord
Vento: Nord 15 km/h
Temperatura: 27°C
Heat Index: 29°C
Punto di Rugiada: 21°C
Umidità: 70%
Barometro: 1015 hPa
Nuvole: Qualche Nuvola
Visibilità: 10 km
Nuvole nel Dettaglio: Qualche Nuvola 610 m
2020/07/16 12:20 LICJ 161220Z 35008KT 9999 FEW020 27/21 Q1015
LICC - Catania Fontanarossa, It
Distanza dalla Stazione: 866 km
Ultimo Aggiornamento: Giovedì 16 Luglio 2020 14:20 CEST
Parzialmente Nuvoloso
Parzialmente Nuvoloso
 Wind from Est
Vento: Est 26 km/h
Temperatura: 29°C
Heat Index: 31°C
Punto di Rugiada: 21°C
Umidità: 62%
Barometro: 1013 hPa
Nuvole: Parzialmente Nuvoloso
Visibilità: 10 km
Nuvole nel Dettaglio: Qualche Nuvola 914 m
Parzialmente Nuvoloso 1829 m
2020/07/16 12:20 LICC 161220Z 08014KT 9999 FEW030 SCT060 29/21 Q1013
 
LIEE - Cagliari Elmas, It
Distanza dalla Stazione: 655 km
Ultimo Aggiornamento: Giovedì 16 Luglio 2020 14:20 CEST
Qualche Nuvola
Qualche Nuvola
 Wind from Nord-Nord-Ovest
Vento: Nord-Nord-Ovest 28 km/h
Temperatura: 30°C
Heat Index: 29°C
Punto di Rugiada: 15°C
Umidità: 40%
Barometro: 1015 hPa
Nuvole: Qualche Nuvola
Visibilità: 10 km
Nuvole nel Dettaglio: Qualche Nuvola 914 m
2020/07/16 12:20 LIEE 161220Z 33015KT 9999 FEW030 30/15 Q1015
LIEO - Olbia, It
Distanza dalla Stazione: 463 km
Ultimo Aggiornamento: Giovedì 16 Luglio 2020 14:20 CEST
Parzialmente Nuvoloso
Parzialmente Nuvoloso
 Wind from Ovest-Nord-Ovest
Vento: Ovest-Nord-Ovest 20 km/h
Temperatura: 30°C
Punto di Rugiada: 11°C
Umidità: 31%
Barometro: 1014 hPa
Nuvole: Parzialmente Nuvoloso
Visibilità: 10 km
Nuvole nel Dettaglio: Parzialmente Nuvoloso 914 m
2020/07/16 12:20 LIEO 161220Z 30011KT 270V340 9999 SCT030 30/11 Q1014
LICG - Pantelleria, It
Distanza dalla Stazione: 893 km
Ultimo Aggiornamento: Giovedì 16 Luglio 2020 13:50 CEST
Qualche Nuvola
Qualche Nuvola
 Wind from Ovest
Vento: Ovest 20 km/h
Temperatura: 26°C
Punto di Rugiada: 21°C
Umidità: 74%
Barometro: 1017 hPa
Nuvole: Qualche Nuvola
Visibilità: 10 km
Nuvole nel Dettaglio: Qualche Nuvola 457 m
2020/07/16 11:50 LICG 161150Z 28011KT 9999 FEW015 26/21 Q1017